createdAt,value
2019-03-24T20:25:22.544Z,2.80
2019-03-24T20:26:22.422Z,2.80
2019-03-24T20:27:22.410Z,3.60
2019-03-24T20:28:22.399Z,3.20
2019-03-24T20:29:22.354Z,3.40
2019-03-24T20:30:22.410Z,3.50
2019-03-24T20:31:22.318Z,3.40
2019-03-24T20:32:22.274Z,3.30
2019-03-24T20:33:22.243Z,3.50
2019-03-24T20:34:22.242Z,3.70
2019-03-24T20:35:22.288Z,3.90
2019-03-24T20:36:22.214Z,4.00
2019-03-24T20:37:22.165Z,4.00
2019-03-24T20:38:22.168Z,4.20
2019-03-24T20:39:22.127Z,4.10
2019-03-24T20:40:22.117Z,4.00
2019-03-24T20:41:22.122Z,3.90
2019-03-24T20:42:22.060Z,4.30
2019-03-24T20:43:22.051Z,4.10
2019-03-24T20:44:22.030Z,3.90
2019-03-24T20:45:22.007Z,3.60
2019-03-24T20:46:21.989Z,3.90
2019-03-24T20:47:21.979Z,3.60
2019-03-24T20:48:21.941Z,4.20
2019-03-24T20:49:21.945Z,4.30
2019-03-24T20:50:21.918Z,3.90
2019-03-24T20:51:21.894Z,4.20
2019-03-24T20:52:21.890Z,4.00
2019-03-24T20:53:21.840Z,3.70
2019-03-24T20:54:21.844Z,4.00
2019-03-24T20:55:21.796Z,3.70
2019-03-24T20:56:21.800Z,3.90
2019-03-24T20:57:21.792Z,4.10
2019-03-24T20:58:21.758Z,3.90
2019-03-24T20:59:21.734Z,4.10
2019-03-24T21:00:21.725Z,4.00
2019-03-24T21:01:21.683Z,4.00
2019-03-24T21:02:21.700Z,4.00
2019-03-24T21:03:21.919Z,3.90
2019-03-24T21:04:21.806Z,3.90
2019-03-24T21:05:21.642Z,4.10
2019-03-24T21:06:21.601Z,4.30
2019-03-24T21:07:21.570Z,3.80
2019-03-24T21:08:21.595Z,3.90
2019-03-24T21:09:21.544Z,3.80
2019-03-24T21:10:23.954Z,3.80
2019-03-24T21:11:21.499Z,4.20
2019-03-24T21:12:21.464Z,3.80
2019-03-24T21:13:21.468Z,4.20
2019-03-24T21:14:21.424Z,4.30
2019-03-24T21:15:21.420Z,4.30
2019-03-24T21:16:21.384Z,4.10
2019-03-24T21:17:21.382Z,3.90
2019-03-24T21:18:21.346Z,3.60
2019-03-24T21:19:21.332Z,4.20
2019-03-24T21:20:21.340Z,4.00
2019-03-24T21:21:21.288Z,4.30
2019-03-24T21:22:21.319Z,4.20
2019-03-24T21:25:03.279Z,4.00
2019-03-24T21:26:03.261Z,4.30
2019-03-24T21:27:03.246Z,3.80
2019-03-24T21:28:03.243Z,4.20
2019-03-24T21:29:03.208Z,4.00
2019-03-24T21:30:03.180Z,4.10
2019-03-24T21:31:03.166Z,4.30
2019-03-24T21:32:03.159Z,4.40
2019-03-24T21:33:03.140Z,4.10
2019-03-24T21:34:03.110Z,3.90
2019-03-24T21:35:03.111Z,3.90
2019-03-24T21:36:03.080Z,4.10
2019-03-24T21:37:03.054Z,4.10
2019-03-24T21:38:03.029Z,4.20
2019-03-24T21:39:03.005Z,3.60
2019-03-24T21:40:06.099Z,4.20
2019-03-24T21:41:03.004Z,4.00
2019-03-24T21:42:03.855Z,4.00
2019-03-24T21:43:02.932Z,4.20
2019-03-24T21:44:02.914Z,4.10
2019-03-24T21:45:02.905Z,4.30
2019-03-24T21:46:02.929Z,4.30
2019-03-24T21:47:02.912Z,4.60
2019-03-24T21:48:02.831Z,4.10
2019-03-24T21:49:02.877Z,4.40
2019-03-24T21:50:02.851Z,4.70
2019-03-24T21:51:02.856Z,4.60
2019-03-24T21:52:02.806Z,3.80
2019-03-24T21:53:02.749Z,4.10
2019-03-24T21:54:02.745Z,4.30
2019-03-24T21:55:02.695Z,4.10
2019-03-24T21:56:02.684Z,4.40
2019-03-24T21:57:02.668Z,4.10
2019-03-24T21:58:02.633Z,4.10
2019-03-24T21:59:02.614Z,4.10
2019-03-24T22:00:02.612Z,4.00
2019-03-24T22:01:02.573Z,4.20
2019-03-24T22:02:02.584Z,4.20
2019-03-24T22:03:02.625Z,4.20
2019-03-24T22:04:02.917Z,4.40
2019-03-24T22:05:02.503Z,4.30
2019-03-24T22:06:02.487Z,4.30
2019-03-24T22:07:02.455Z,4.40
2019-03-24T22:08:02.438Z,4.30
2019-03-24T22:09:02.439Z,5.00
2019-03-24T22:10:02.409Z,4.70
2019-03-24T22:11:02.380Z,4.50
2019-03-24T22:12:02.365Z,4.10
2019-03-24T22:13:02.336Z,4.70
2019-03-24T22:14:02.334Z,4.30
2019-03-24T22:15:02.294Z,4.40
2019-03-24T22:16:02.280Z,4.30
2019-03-24T22:17:02.262Z,4.60
2019-03-24T22:18:02.247Z,4.40
2019-03-24T22:19:02.239Z,4.70
2019-03-24T22:20:02.231Z,4.60
2019-03-24T22:21:02.193Z,4.80
2019-03-24T22:22:02.175Z,4.30
2019-03-24T22:23:02.138Z,4.50
2019-03-24T22:24:02.123Z,4.50
2019-03-24T22:25:02.126Z,4.60
2019-03-24T22:26:02.098Z,4.80
2019-03-24T22:27:02.059Z,4.70
2019-03-24T22:28:02.047Z,4.70
2019-03-24T22:29:02.035Z,4.70
2019-03-24T22:30:02.005Z,4.50
2019-03-24T22:31:01.999Z,4.70
2019-03-24T22:32:01.987Z,4.90
2019-03-24T22:33:01.954Z,4.80
2019-03-24T22:34:01.920Z,4.40
2019-03-24T22:35:01.904Z,5.00
2019-03-24T22:36:01.884Z,4.60
2019-03-24T22:37:01.983Z,4.60
2019-03-24T22:38:01.984Z,4.40
2019-03-24T22:39:01.829Z,4.90
2019-03-24T22:40:01.843Z,4.50
2019-03-24T22:41:01.786Z,5.10
2019-03-24T22:42:01.759Z,4.40
2019-03-24T22:43:01.769Z,4.40
2019-03-24T22:44:01.726Z,4.80
2019-03-24T22:45:01.704Z,4.50
2019-03-24T22:46:01.684Z,5.10
2019-03-24T22:47:01.666Z,4.80
2019-03-24T22:48:01.641Z,4.70
2019-03-24T22:49:01.645Z,4.90
2019-03-24T22:50:01.627Z,4.50
2019-03-24T22:51:01.587Z,4.70
2019-03-24T22:52:07.149Z,4.90
2019-03-24T22:53:01.545Z,4.70
2019-03-24T22:54:03.419Z,4.90
2019-03-24T22:55:01.521Z,5.00
2019-03-24T22:56:01.495Z,4.80
2019-03-24T22:57:01.514Z,5.30
2019-03-24T22:58:01.437Z,5.10
2019-03-24T22:59:01.420Z,5.30
2019-03-24T23:00:01.427Z,5.50
2019-03-24T23:01:01.379Z,5.90
2019-03-24T23:02:01.357Z,5.40
2019-03-24T23:03:01.348Z,5.70
2019-03-24T23:04:01.318Z,5.30
2019-03-24T23:05:01.298Z,5.50
2019-03-24T23:06:01.302Z,5.30
2019-03-24T23:07:01.271Z,5.40
2019-03-24T23:08:01.238Z,5.30
2019-03-24T23:09:01.219Z,5.30
2019-03-24T23:10:01.234Z,5.10
2019-03-24T23:11:01.182Z,5.30
2019-03-24T23:12:01.157Z,5.20
2019-03-24T23:13:01.136Z,5.40
2019-03-24T23:14:01.112Z,5.90
2019-03-24T23:15:01.125Z,5.30
2019-03-24T23:16:01.094Z,5.40
2019-03-24T23:17:01.055Z,5.70
2019-03-24T23:18:01.032Z,5.20
2019-03-24T23:19:01.831Z,5.10
2019-03-24T23:20:00.997Z,5.30
2019-03-24T23:21:00.971Z,5.20
2019-03-24T23:22:00.969Z,5.40
2019-03-24T23:23:00.942Z,5.80
2019-03-24T23:24:00.907Z,5.70
2019-03-24T23:25:00.892Z,5.80
2019-03-24T23:26:00.868Z,5.50
2019-03-24T23:27:00.867Z,5.20
2019-03-24T23:28:00.827Z,5.70
2019-03-24T23:29:00.805Z,5.80
2019-03-24T23:30:00.787Z,5.80
2019-03-24T23:31:00.775Z,6.00
2019-03-24T23:32:00.740Z,6.00
2019-03-24T23:33:00.755Z,5.70
2019-03-24T23:34:00.699Z,5.80
2019-03-24T23:36:42.799Z,5.50
2019-03-24T23:37:42.781Z,5.80
2019-03-24T23:38:42.771Z,5.70
2019-03-24T23:39:42.759Z,5.70
2019-03-24T23:40:42.720Z,6.10
2019-03-24T23:41:42.693Z,5.90
2019-03-24T23:42:42.675Z,5.50
2019-03-24T23:43:42.658Z,5.60
2019-03-24T23:44:42.632Z,5.50
2019-03-24T23:45:42.632Z,5.30
2019-03-24T23:46:42.597Z,5.80
2019-03-24T23:47:42.569Z,5.30
2019-03-24T23:48:42.551Z,5.10
2019-03-24T23:49:42.532Z,5.20
2019-03-24T23:50:42.534Z,5.30
2019-03-24T23:51:42.486Z,4.90
2019-03-24T23:52:42.463Z,5.30
2019-03-24T23:53:42.447Z,5.40
2019-03-24T23:54:42.423Z,5.50
2019-03-24T23:55:42.404Z,5.40
2019-03-24T23:56:42.404Z,5.10
2019-03-24T23:57:42.359Z,5.30
2019-03-24T23:58:42.905Z,5.40
2019-03-24T23:59:42.320Z,5.00
